Qinhuangdao, China
Current Conditions -  °F | °C
As of 12:00 AM on Friday 24 Oct 2014 (Local Time) from ZYTL Reporting Station
Haze Haze  
Wind Chill: 61°   Ceiling: Unl
Heat Index: 61°   Visibility: 1.8mi
Dew Point: 55°   Wind: 7mph
Humidity: 82%   Direction: 150°SSE
Pressure: 29.94"   Gusts: NA
Location:  39.95°N, 119.59°E
Report Text: ZYTL 231600Z 15003MPS 090V200 3000 BR NSC 16/13 Q1014 NOSIG
Loading
Personal Weather Stations






























Interactive Weather Map
Tropical Storm Tracking
New forecast layout! Learn more

10-Day Weather Forecast

Advertisements
Track Severe Weather on mobile